PWSweather.com
Personal Weather Stations
Station Observations
KMDSOLOM1
solomons, Solomons, MD 20688

solomonsSolomons, MD 20688

Lat: 38.32, Lon: -76.45

Elevation: 5

Station Type:

http://www.act-us.info/weather

High Low Average
Temperature 59.6°F15.3°C 42.8°F6.0°C 50.1°F10.1°C
Dew Point 43.1°F6.2°C 24.8°F-4.0°C 30.8°F-0.7°C
Winds 26.0 mph 41.8 kmh Calm Calm 9.0 mph WSW14.5 kmh WSW
Wind Gusts 31.0 mph49.9 kmh 2.0 mph3.2 kmh 16.0 mph25.7 kmh
Humidity 63% 32% 48%
Pressure 30.17 in1021.7 mb 29.79 in1008.8 mb -
Precipitation 0.00 in0.0 mm - -
Hour Temp Dew Point Humidity Winds Wind Gusts Pressure Precip Precip Rate Daily Precip Total
12:00 AM 59.6°F15.3°C 43.0°F6.1°C 54% 7.0 mph WSW11.3 kmh WSW 19.0 mph30.6 kmh 29.79 in1008.8 mb 0.00 in0.0 mm 0.00 in0.0 mm 0.00 in0.0 mm
12:05 AM 59.5°F15.3°C 42.4°F5.8°C 53% 12.0 mph WSW19.3 kmh WSW 19.0 mph30.6 kmh 29.79 in1008.8 mb 0.00 in0.0 mm 0.00 in0.0 mm 0.00 in0.0 mm
12:10 AM 59.5°F15.3°C 42.9°F6.1°C 54% 10.0 mph WSW16.1 kmh WSW 16.0 mph25.7 kmh 29.79 in1008.8 mb 0.00 in0.0 mm 0.00 in0.0 mm 0.00 in0.0 mm
12:15 AM 59.4°F15.2°C 42.3°F5.7°C 53% 18.0 mph W29.0 kmh W 19.0 mph30.6 kmh 29.80 in1009.1 mb 0.00 in0.0 mm 0.00 in0.0 mm 0.00 in0.0 mm
12:20 AM 59.2°F15.1°C 42.1°F5.6°C 53% 12.0 mph SW19.3 kmh SW 21.0 mph33.8 kmh 29.80 in1009.1 mb 0.00 in0.0 mm 0.00 in0.0 mm 0.00 in0.0 mm
12:25 AM 58.7°F14.8°C 43.1°F6.2°C 56% 11.0 mph SW17.7 kmh SW 14.0 mph22.5 kmh 29.81 in1009.5 mb 0.00 in0.0 mm 0.00 in0.0 mm 0.00 in0.0 mm
12:30 AM 58.0°F14.4°C 41.9°F5.5°C 55% 9.0 mph WSW14.5 kmh WSW 16.0 mph25.7 kmh 29.81 in1009.5 mb 0.00 in0.0 mm 0.00 in0.0 mm 0.00 in0.0 mm
12:35 AM 57.6°F14.2°C 41.1°F5.1°C 54% 13.0 mph W20.9 kmh W 18.0 mph29.0 kmh 29.81 in1009.5 mb 0.00 in0.0 mm 0.00 in0.0 mm 0.00 in0.0 mm
12:40 AM 57.4°F14.1°C 40.9°F4.9°C 54% 13.0 mph WSW20.9 kmh WSW 18.0 mph29.0 kmh 29.82 in1009.8 mb 0.00 in0.0 mm 0.00 in0.0 mm 0.00 in0.0 mm
12:45 AM 57.2°F14.0°C 40.7°F4.8°C 54% 12.0 mph WSW19.3 kmh WSW 20.0 mph32.2 kmh 29.82 in1009.8 mb 0.00 in0.0 mm 0.00 in0.0 mm 0.00 in0.0 mm
12:50 AM 56.8°F13.8°C 41.8°F5.4°C 57% 11.0 mph WSW17.7 kmh WSW 20.0 mph32.2 kmh 29.83 in1010.2 mb 0.00 in0.0 mm 0.00 in0.0 mm 0.00 in0.0 mm
12:55 AM 56.4°F13.6°C 41.4°F5.2°C 57% 9.0 mph SW14.5 kmh SW 14.0 mph22.5 kmh 29.83 in1010.2 mb 0.00 in0.0 mm 0.00 in0.0 mm 0.00 in0.0 mm
01:00 AM 56.1°F13.4°C 41.1°F5.1°C 57% 8.0 mph WSW12.9 kmh WSW 18.0 mph29.0 kmh 29.83 in1010.2 mb 0.00 in0.0 mm 0.00 in0.0 mm 0.00 in0.0 mm
01:05 AM 55.8°F13.2°C 41.3°F5.2°C 58% 6.0 mph SW9.7 kmh SW 19.0 mph30.6 kmh 29.83 in1010.2 mb 0.00 in0.0 mm 0.00 in0.0 mm 0.00 in0.0 mm
01:10 AM 55.5°F13.1°C 41.0°F5.0°C 58% 10.0 mph SW16.1 kmh SW 15.0 mph24.1 kmh 29.84 in1010.5 mb 0.00 in0.0 mm 0.00 in0.0 mm 0.00 in0.0 mm
01:15 AM 55.2°F12.9°C 40.7°F4.8°C 58% 9.0 mph WSW14.5 kmh WSW 17.0 mph27.4 kmh 29.84 in1010.5 mb 0.00 in0.0 mm 0.00 in0.0 mm 0.00 in0.0 mm
01:20 AM 55.0°F12.8°C 40.5°F4.7°C 58% 8.0 mph WSW12.9 kmh WSW 17.0 mph27.4 kmh 29.84 in1010.5 mb 0.00 in0.0 mm 0.00 in0.0 mm 0.00 in0.0 mm
01:25 AM 54.7°F12.6°C 39.8°F4.3°C 57% 10.0 mph WSW16.1 kmh WSW 15.0 mph24.1 kmh 29.85 in1010.8 mb 0.00 in0.0 mm 0.00 in0.0 mm 0.00 in0.0 mm
01:30 AM 54.6°F12.6°C 40.1°F4.5°C 58% 11.0 mph WSW17.7 kmh WSW 17.0 mph27.4 kmh 29.85 in1010.8 mb 0.00 in0.0 mm 0.00 in0.0 mm 0.00 in0.0 mm
01:35 AM 54.5°F12.5°C 40.0°F4.4°C 58% 10.0 mph SW16.1 kmh SW 19.0 mph30.6 kmh 29.85 in1010.8 mb 0.00 in0.0 mm 0.00 in0.0 mm 0.00 in0.0 mm
01:40 AM 54.4°F12.4°C 40.0°F4.4°C 58% 14.0 mph SW22.5 kmh SW 19.0 mph30.6 kmh 29.85 in1010.8 mb 0.00 in0.0 mm 0.00 in0.0 mm 0.00 in0.0 mm
01:45 AM 54.4°F12.4°C 39.5°F4.2°C 57% 14.0 mph WSW22.5 kmh WSW 21.0 mph33.8 kmh 29.85 in1010.8 mb 0.00 in0.0 mm 0.00 in0.0 mm 0.00 in0.0 mm
01:50 AM 54.5°F12.5°C 39.1°F3.9°C 56% 7.0 mph SW11.3 kmh SW 24.0 mph38.6 kmh 29.85 in1010.8 mb 0.00 in0.0 mm 0.00 in0.0 mm 0.00 in0.0 mm
01:55 AM 54.4°F12.4°C 40.0°F4.4°C 58% 10.0 mph WSW16.1 kmh WSW 11.0 mph17.7 kmh 29.86 in1011.2 mb 0.00 in0.0 mm 0.00 in0.0 mm 0.00 in0.0 mm
02:00 AM 54.1°F12.3°C 40.1°F4.5°C 59% 4.0 mph WSW6.4 kmh WSW 16.0 mph25.7 kmh 29.86 in1011.2 mb 0.00 in0.0 mm 0.00 in0.0 mm 0.00 in0.0 mm
02:05 AM 53.9°F12.2°C 39.9°F4.4°C 59% 6.0 mph SW9.7 kmh SW 16.0 mph25.7 kmh 29.86 in1011.2 mb 0.00 in0.0 mm 0.00 in0.0 mm 0.00 in0.0 mm
02:10 AM 53.7°F12.1°C 39.7°F4.3°C 59% 4.0 mph WSW6.4 kmh WSW 10.0 mph16.1 kmh 29.87 in1011.5 mb 0.00 in0.0 mm 0.00 in0.0 mm 0.00 in0.0 mm
02:15 AM 53.4°F11.9°C 39.9°F4.4°C 60% 7.0 mph WSW11.3 kmh WSW 13.0 mph20.9 kmh 29.87 in1011.5 mb 0.00 in0.0 mm 0.00 in0.0 mm 0.00 in0.0 mm
02:20 AM 53.2°F11.8°C 39.3°F4.1°C 59% 14.0 mph SW22.5 kmh SW 14.0 mph22.5 kmh 29.88 in1011.9 mb 0.00 in0.0 mm 0.00 in0.0 mm 0.00 in0.0 mm
02:25 AM 53.0°F11.7°C 39.1°F3.9°C 59% 9.0 mph WSW14.5 kmh WSW 14.0 mph22.5 kmh 29.88 in1011.9 mb 0.00 in0.0 mm 0.00 in0.0 mm 0.00 in0.0 mm
02:30 AM 53.0°F11.7°C 39.1°F3.9°C 59% 11.0 mph WSW17.7 kmh WSW 16.0 mph25.7 kmh 29.88 in1011.9 mb 0.00 in0.0 mm 0.00 in0.0 mm 0.00 in0.0 mm
02:35 AM 52.8°F11.6°C 39.7°F4.3°C 61% 8.0 mph WSW12.9 kmh WSW 16.0 mph25.7 kmh 29.88 in1011.9 mb 0.00 in0.0 mm 0.00 in0.0 mm 0.00 in0.0 mm
02:40 AM 52.6°F11.4°C 40.0°F4.4°C 62% 5.0 mph SW8.0 kmh SW 9.0 mph14.5 kmh 29.88 in1011.9 mb 0.00 in0.0 mm 0.00 in0.0 mm 0.00 in0.0 mm
02:45 AM 52.3°F11.3°C 38.8°F3.8°C 60% 6.0 mph SW9.7 kmh SW 16.0 mph25.7 kmh 29.89 in1012.2 mb 0.00 in0.0 mm 0.00 in0.0 mm 0.00 in0.0 mm
02:50 AM 52.2°F11.2°C 38.8°F3.8°C 60% 11.0 mph W17.7 kmh W 18.0 mph29.0 kmh 29.89 in1012.2 mb 0.00 in0.0 mm 0.00 in0.0 mm 0.00 in0.0 mm
02:55 AM 52.0°F11.1°C 38.1°F3.4°C 59% 11.0 mph SW17.7 kmh SW 18.0 mph29.0 kmh 29.89 in1012.2 mb 0.00 in0.0 mm 0.00 in0.0 mm 0.00 in0.0 mm
03:00 AM 51.9°F11.1°C 38.0°F3.3°C 59% 9.0 mph SW14.5 kmh SW 18.0 mph29.0 kmh 29.89 in1012.2 mb 0.00 in0.0 mm 0.00 in0.0 mm 0.00 in0.0 mm
03:05 AM 51.7°F10.9°C 38.3°F3.5°C 60% 10.0 mph WSW16.1 kmh WSW 18.0 mph29.0 kmh 29.89 in1012.2 mb 0.00 in0.0 mm 0.00 in0.0 mm 0.00 in0.0 mm
03:10 AM 51.5°F10.8°C 37.7°F3.2°C 59% 9.0 mph WSW14.5 kmh WSW 18.0 mph29.0 kmh 29.89 in1012.2 mb 0.00 in0.0 mm 0.00 in0.0 mm 0.00 in0.0 mm
03:15 AM 51.4°F10.8°C 38.0°F3.3°C 60% 10.0 mph WSW16.1 kmh WSW 18.0 mph29.0 kmh 29.90 in1012.5 mb 0.00 in0.0 mm 0.00 in0.0 mm 0.00 in0.0 mm
03:20 AM 51.3°F10.7°C 36.6°F2.6°C 57% 14.0 mph WSW22.5 kmh WSW 21.0 mph33.8 kmh 29.90 in1012.5 mb 0.00 in0.0 mm 0.00 in0.0 mm 0.00 in0.0 mm
03:25 AM 51.2°F10.7°C 36.1°F2.3°C 56% 12.0 mph WSW19.3 kmh WSW 19.0 mph30.6 kmh 29.90 in1012.5 mb 0.00 in0.0 mm 0.00 in0.0 mm 0.00 in0.0 mm
03:30 AM 51.0°F10.6°C 36.3°F2.4°C 57% 10.0 mph SW16.1 kmh SW 23.0 mph37.0 kmh 29.91 in1012.9 mb 0.00 in0.0 mm 0.00 in0.0 mm 0.00 in0.0 mm
03:35 AM 50.8°F10.4°C 36.1°F2.3°C 57% 8.0 mph WSW12.9 kmh WSW 23.0 mph37.0 kmh 29.91 in1012.9 mb 0.00 in0.0 mm 0.00 in0.0 mm 0.00 in0.0 mm
03:40 AM 50.7°F10.4°C 36.0°F2.2°C 57% 11.0 mph SW17.7 kmh SW 17.0 mph27.4 kmh 29.91 in1012.9 mb 0.00 in0.0 mm 0.00 in0.0 mm 0.00 in0.0 mm
03:45 AM 50.5°F10.3°C 35.9°F2.2°C 57% 18.0 mph SW29.0 kmh SW 18.0 mph29.0 kmh 29.92 in1013.2 mb 0.00 in0.0 mm 0.00 in0.0 mm 0.00 in0.0 mm
03:50 AM 50.3°F10.2°C 36.1°F2.3°C 58% 13.0 mph SW20.9 kmh SW 19.0 mph30.6 kmh 29.92 in1013.2 mb 0.00 in0.0 mm 0.00 in0.0 mm 0.00 in0.0 mm
03:55 AM 50.2°F10.1°C 36.0°F2.2°C 58% 10.0 mph SW16.1 kmh SW 13.0 mph20.9 kmh 29.92 in1013.2 mb 0.00 in0.0 mm 0.00 in0.0 mm 0.00 in0.0 mm
04:00 AM 50.0°F10.0°C 35.8°F2.1°C 58% 15.0 mph SW24.1 kmh SW 22.0 mph35.4 kmh 29.92 in1013.2 mb 0.00 in0.0 mm 0.00 in0.0 mm 0.00 in0.0 mm
04:05 AM 49.9°F9.9°C 36.6°F2.6°C 60% 12.0 mph SW19.3 kmh SW 22.0 mph35.4 kmh 29.93 in1013.5 mb 0.00 in0.0 mm 0.00 in0.0 mm 0.00 in0.0 mm
04:10 AM 49.7°F9.8°C 36.8°F2.7°C 61% 14.0 mph WSW22.5 kmh WSW 15.0 mph24.1 kmh 29.93 in1013.5 mb 0.00 in0.0 mm 0.00 in0.0 mm 0.00 in0.0 mm
04:15 AM 49.5°F9.7°C 36.6°F2.6°C 61% 10.0 mph WSW16.1 kmh WSW 17.0 mph27.4 kmh 29.93 in1013.5 mb 0.00 in0.0 mm 0.00 in0.0 mm 0.00 in0.0 mm
04:20 AM 49.3°F9.6°C 36.0°F2.2°C 60% 11.0 mph WSW17.7 kmh WSW 18.0 mph29.0 kmh 29.94 in1013.9 mb 0.00 in0.0 mm 0.00 in0.0 mm 0.00 in0.0 mm
04:25 AM 49.2°F9.6°C 35.9°F2.2°C 60% 8.0 mph SW12.9 kmh SW 13.0 mph20.9 kmh 29.94 in1013.9 mb 0.00 in0.0 mm 0.00 in0.0 mm 0.00 in0.0 mm
04:30 AM 49.1°F9.5°C 35.8°F2.1°C 60% 8.0 mph SW12.9 kmh SW 18.0 mph29.0 kmh 29.94 in1013.9 mb 0.00 in0.0 mm 0.00 in0.0 mm 0.00 in0.0 mm
04:35 AM 48.9°F9.4°C 35.6°F2.0°C 60% 10.0 mph WSW16.1 kmh WSW 19.0 mph30.6 kmh 29.94 in1013.9 mb 0.00 in0.0 mm 0.00 in0.0 mm 0.00 in0.0 mm
04:40 AM 48.7°F9.3°C 35.9°F2.2°C 61% 12.0 mph SW19.3 kmh SW 17.0 mph27.4 kmh 29.94 in1013.9 mb 0.00 in0.0 mm 0.00 in0.0 mm 0.00 in0.0 mm
04:45 AM 48.6°F9.2°C 35.8°F2.1°C 61% 9.0 mph SW14.5 kmh SW 17.0 mph27.4 kmh 29.95 in1014.2 mb 0.00 in0.0 mm 0.00 in0.0 mm 0.00 in0.0 mm
04:50 AM 48.3°F9.1°C 35.5°F1.9°C 61% 9.0 mph SW14.5 kmh SW 19.0 mph30.6 kmh 29.95 in1014.2 mb 0.00 in0.0 mm 0.00 in0.0 mm 0.00 in0.0 mm
04:55 AM 48.2°F9.0°C 35.8°F2.1°C 62% 16.0 mph WSW25.7 kmh WSW 20.0 mph32.2 kmh 29.95 in1014.2 mb 0.00 in0.0 mm 0.00 in0.0 mm 0.00 in0.0 mm
05:00 AM 48.1°F8.9°C 35.7°F2.1°C 62% 13.0 mph SW20.9 kmh SW 22.0 mph35.4 kmh 29.96 in1014.6 mb 0.00 in0.0 mm 0.00 in0.0 mm 0.00 in0.0 mm
05:05 AM 48.0°F8.9°C 36.0°F2.2°C 63% 10.0 mph WSW16.1 kmh WSW 22.0 mph35.4 kmh 29.96 in1014.6 mb 0.00 in0.0 mm 0.00 in0.0 mm 0.00 in0.0 mm
05:10 AM 47.9°F8.8°C 35.5°F1.9°C 62% 12.0 mph WSW19.3 kmh WSW 15.0 mph24.1 kmh 29.97 in1014.9 mb 0.00 in0.0 mm 0.00 in0.0 mm 0.00 in0.0 mm
05:15 AM 47.8°F8.8°C 35.4°F1.9°C 62% 13.0 mph WSW20.9 kmh WSW 21.0 mph33.8 kmh 29.97 in1014.9 mb 0.00 in0.0 mm 0.00 in0.0 mm 0.00 in0.0 mm
05:20 AM 47.7°F8.7°C 35.3°F1.8°C 62% 9.0 mph SW14.5 kmh SW 21.0 mph33.8 kmh 29.97 in1014.9 mb 0.00 in0.0 mm 0.00 in0.0 mm 0.00 in0.0 mm
05:25 AM 47.6°F8.7°C 34.8°F1.6°C 61% 11.0 mph SW17.7 kmh SW 16.0 mph25.7 kmh 29.97 in1014.9 mb 0.00 in0.0 mm 0.00 in0.0 mm 0.00 in0.0 mm
05:30 AM 47.6°F8.7°C 34.8°F1.6°C 61% 10.0 mph SW16.1 kmh SW 23.0 mph37.0 kmh 29.98 in1015.2 mb 0.00 in0.0 mm 0.00 in0.0 mm 0.00 in0.0 mm
05:35 AM 47.5°F8.6°C 35.1°F1.7°C 62% 12.0 mph SW19.3 kmh SW 23.0 mph37.0 kmh 29.98 in1015.2 mb 0.00 in0.0 mm 0.00 in0.0 mm 0.00 in0.0 mm
05:40 AM 47.4°F8.6°C 34.6°F1.4°C 61% 16.0 mph WSW25.7 kmh WSW 17.0 mph27.4 kmh 29.98 in1015.2 mb 0.00 in0.0 mm 0.00 in0.0 mm 0.00 in0.0 mm
05:45 AM 47.3°F8.5°C 34.6°F1.4°C 61% 9.0 mph WSW14.5 kmh WSW 17.0 mph27.4 kmh 29.98 in1015.2 mb 0.00 in0.0 mm 0.00 in0.0 mm 0.00 in0.0 mm
05:50 AM 47.2°F8.4°C 34.0°F1.1°C 60% 9.0 mph SW14.5 kmh SW 17.0 mph27.4 kmh 29.98 in1015.2 mb 0.00 in0.0 mm 0.00 in0.0 mm 0.00 in0.0 mm
05:55 AM 47.0°F8.3°C 33.9°F1.1°C 60% 10.0 mph SSW16.1 kmh SSW 22.0 mph35.4 kmh 29.98 in1015.2 mb 0.00 in0.0 mm 0.00 in0.0 mm 0.00 in0.0 mm
06:00 AM 47.0°F8.3°C 32.6°F0.3°C 57% 7.0 mph SW11.3 kmh SW 22.0 mph35.4 kmh 29.99 in1015.6 mb 0.00 in0.0 mm 0.00 in0.0 mm 0.00 in0.0 mm
06:05 AM 47.0°F8.3°C 33.0°F0.6°C 58% 13.0 mph SW20.9 kmh SW 22.0 mph35.4 kmh 29.99 in1015.6 mb 0.00 in0.0 mm 0.00 in0.0 mm 0.00 in0.0 mm
06:10 AM 47.0°F8.3°C 32.6°F0.3°C 57% 10.0 mph SW16.1 kmh SW 13.0 mph20.9 kmh 29.99 in1015.6 mb 0.00 in0.0 mm 0.00 in0.0 mm 0.00 in0.0 mm
06:15 AM 46.9°F8.3°C 32.5°F0.3°C 57% 7.0 mph SW11.3 kmh SW 14.0 mph22.5 kmh 29.99 in1015.6 mb 0.00 in0.0 mm 0.00 in0.0 mm 0.00 in0.0 mm
06:20 AM 46.8°F8.2°C 32.4°F0.2°C 57% 10.0 mph SW16.1 kmh SW 15.0 mph24.1 kmh 29.99 in1015.6 mb 0.00 in0.0 mm 0.00 in0.0 mm 0.00 in0.0 mm
06:25 AM 46.7°F8.2°C 31.9°F-0.1°C 56% 6.0 mph SW9.7 kmh SW 15.0 mph24.1 kmh 30.00 in1015.9 mb 0.00 in0.0 mm 0.00 in0.0 mm 0.00 in0.0 mm
06:30 AM 46.8°F8.2°C 32.0°F0.0°C 56% 12.0 mph SW19.3 kmh SW 21.0 mph33.8 kmh 30.00 in1015.9 mb 0.00 in0.0 mm 0.00 in0.0 mm 0.00 in0.0 mm
06:35 AM 46.8°F8.2°C 32.0°F0.0°C 56% 10.0 mph SSW16.1 kmh SSW 21.0 mph33.8 kmh 30.01 in1016.3 mb 0.00 in0.0 mm 0.00 in0.0 mm 0.00 in0.0 mm
06:40 AM 46.8°F8.2°C 32.4°F0.2°C 57% 5.0 mph WSW8.0 kmh WSW 12.0 mph19.3 kmh 30.00 in1015.9 mb 0.00 in0.0 mm 0.00 in0.0 mm 0.00 in0.0 mm
06:45 AM 46.8°F8.2°C 32.4°F0.2°C 57% 4.0 mph SW6.4 kmh SW 16.0 mph25.7 kmh 30.01 in1016.3 mb 0.00 in0.0 mm 0.00 in0.0 mm 0.00 in0.0 mm
06:50 AM 46.9°F8.3°C 32.0°F0.0°C 56% 12.0 mph SW19.3 kmh SW 21.0 mph33.8 kmh 30.01 in1016.3 mb 0.00 in0.0 mm 0.00 in0.0 mm 0.00 in0.0 mm
06:55 AM 47.0°F8.3°C 32.6°F0.3°C 57% 7.0 mph SW11.3 kmh SW 13.0 mph20.9 kmh 30.01 in1016.3 mb 0.00 in0.0 mm 0.00 in0.0 mm 0.00 in0.0 mm
07:00 AM 47.1°F8.4°C 32.7°F0.4°C 57% 9.0 mph SW14.5 kmh SW 18.0 mph29.0 kmh 30.01 in1016.3 mb 0.00 in0.0 mm 0.00 in0.0 mm 0.00 in0.0 mm
07:05 AM 47.2°F8.4°C 33.2°F0.7°C 58% 11.0 mph WSW17.7 kmh WSW 20.0 mph32.2 kmh 30.01 in1016.3 mb 0.00 in0.0 mm 0.00 in0.0 mm 0.00 in0.0 mm
07:10 AM 47.2°F8.4°C 32.3°F0.2°C 56% 9.0 mph WSW14.5 kmh WSW 16.0 mph25.7 kmh 30.01 in1016.3 mb 0.00 in0.0 mm 0.00 in0.0 mm 0.00 in0.0 mm
07:15 AM 47.2°F8.4°C 32.8°F0.4°C 57% 18.0 mph WSW29.0 kmh WSW 19.0 mph30.6 kmh 30.02 in1016.6 mb 0.00 in0.0 mm 0.00 in0.0 mm 0.00 in0.0 mm
07:20 AM 47.1°F8.4°C 32.7°F0.4°C 57% 14.0 mph WSW22.5 kmh WSW 20.0 mph32.2 kmh 30.03 in1016.9 mb 0.00 in0.0 mm 0.00 in0.0 mm 0.00 in0.0 mm
07:25 AM 47.0°F8.3°C 32.6°F0.3°C 57% 4.0 mph SW6.4 kmh SW 13.0 mph20.9 kmh 30.03 in1016.9 mb 0.00 in0.0 mm 0.00 in0.0 mm 0.00 in0.0 mm
07:30 AM 46.9°F8.3°C 31.6°F-0.2°C 55% 26.0 mph WSW41.8 kmh WSW 26.0 mph41.8 kmh 30.03 in1016.9 mb 0.00 in0.0 mm 0.00 in0.0 mm 0.00 in0.0 mm
07:35 AM 46.8°F8.2°C 32.0°F0.0°C 56% 15.0 mph SW24.1 kmh SW 26.0 mph41.8 kmh 30.04 in1017.3 mb 0.00 in0.0 mm 0.00 in0.0 mm 0.00 in0.0 mm
07:40 AM 46.5°F8.1°C 30.3°F-0.9°C 53% 17.0 mph WSW27.4 kmh WSW 24.0 mph38.6 kmh 30.04 in1017.3 mb 0.00 in0.0 mm 0.00 in0.0 mm 0.00 in0.0 mm
07:45 AM 46.6°F8.1°C 30.4°F-0.9°C 53% 16.0 mph SSW25.7 kmh SSW 24.0 mph38.6 kmh 30.04 in1017.3 mb 0.00 in0.0 mm 0.00 in0.0 mm 0.00 in0.0 mm
07:50 AM 46.5°F8.1°C 31.2°F-0.4°C 55% 15.0 mph SW24.1 kmh SW 25.0 mph40.2 kmh 30.04 in1017.3 mb 0.00 in0.0 mm 0.00 in0.0 mm 0.00 in0.0 mm
07:55 AM 46.8°F8.2°C 31.5°F-0.3°C 55% 19.0 mph SW30.6 kmh SW 22.0 mph35.4 kmh 30.05 in1017.6 mb 0.00 in0.0 mm 0.00 in0.0 mm 0.00 in0.0 mm
08:00 AM 46.8°F8.2°C 31.5°F-0.3°C 55% 19.0 mph SW30.6 kmh SW 22.0 mph35.4 kmh 30.06 in1017.9 mb 0.00 in0.0 mm 0.00 in0.0 mm 0.00 in0.0 mm
08:05 AM 46.5°F8.1°C 30.3°F-0.9°C 53% 10.0 mph WSW16.1 kmh WSW 22.0 mph35.4 kmh 30.05 in1017.6 mb 0.00 in0.0 mm 0.00 in0.0 mm 0.00 in0.0 mm
08:10 AM 46.5°F8.1°C 30.3°F-0.9°C 53% 13.0 mph WSW20.9 kmh WSW 19.0 mph30.6 kmh 30.06 in1017.9 mb 0.00 in0.0 mm 0.00 in0.0 mm 0.00 in0.0 mm
08:15 AM 46.5°F8.1°C 29.8°F-1.2°C 52% 12.0 mph SW19.3 kmh SW 23.0 mph37.0 kmh 30.06 in1017.9 mb 0.00 in0.0 mm 0.00 in0.0 mm 0.00 in0.0 mm
08:20 AM 46.5°F8.1°C 29.4°F-1.4°C 51% 16.0 mph WSW25.7 kmh WSW 23.0 mph37.0 kmh 30.06 in1017.9 mb 0.00 in0.0 mm 0.00 in0.0 mm 0.00 in0.0 mm
08:25 AM 46.4°F8.0°C 29.3°F-1.5°C 51% 16.0 mph WSW25.7 kmh WSW 16.0 mph25.7 kmh 30.07 in1018.3 mb 0.00 in0.0 mm 0.00 in0.0 mm 0.00 in0.0 mm
08:30 AM 46.6°F8.1°C 29.5°F-1.4°C 51% 9.0 mph SW14.5 kmh SW 19.0 mph30.6 kmh 30.07 in1018.3 mb 0.00 in0.0 mm 0.00 in0.0 mm 0.00 in0.0 mm
08:35 AM 46.7°F8.2°C 29.1°F-1.6°C 50% 10.0 mph WSW16.1 kmh WSW 22.0 mph35.4 kmh 30.07 in1018.3 mb 0.00 in0.0 mm 0.00 in0.0 mm 0.00 in0.0 mm
08:40 AM 46.6°F8.1°C 29.0°F-1.7°C 50% 14.0 mph SW22.5 kmh SW 19.0 mph30.6 kmh 30.07 in1018.3 mb 0.00 in0.0 mm 0.00 in0.0 mm 0.00 in0.0 mm
08:45 AM 46.6°F8.1°C 28.5°F-1.9°C 49% 19.0 mph SW30.6 kmh SW 27.0 mph43.5 kmh 30.07 in1018.3 mb 0.00 in0.0 mm 0.00 in0.0 mm 0.00 in0.0 mm
08:50 AM 46.9°F8.3°C 29.7°F-1.3°C 51% 19.0 mph SW30.6 kmh SW 31.0 mph49.9 kmh 30.06 in1017.9 mb 0.00 in0.0 mm 0.00 in0.0 mm 0.00 in0.0 mm
08:55 AM 47.1°F8.4°C 29.4°F-1.4°C 50% 10.0 mph SSW16.1 kmh SSW 20.0 mph32.2 kmh 30.07 in1018.3 mb 0.00 in0.0 mm 0.00 in0.0 mm 0.00 in0.0 mm
09:00 AM 47.1°F8.4°C 29.4°F-1.4°C 50% 5.0 mph SW8.0 kmh SW 22.0 mph35.4 kmh 30.08 in1018.6 mb 0.00 in0.0 mm 0.00 in0.0 mm 0.00 in0.0 mm
09:05 AM 47.0°F8.3°C 28.9°F-1.7°C 49% 13.0 mph SW20.9 kmh SW 26.0 mph41.8 kmh 30.08 in1018.6 mb 0.00 in0.0 mm 0.00 in0.0 mm 0.00 in0.0 mm
09:10 AM 47.2°F8.4°C 28.5°F-1.9°C 48% 17.0 mph SW27.4 kmh SW 19.0 mph30.6 kmh 30.08 in1018.6 mb 0.00 in0.0 mm 0.00 in0.0 mm 0.00 in0.0 mm
09:15 AM 47.3°F8.5°C 29.6°F-1.3°C 50% 9.0 mph SW14.5 kmh SW 22.0 mph35.4 kmh 30.08 in1018.6 mb 0.00 in0.0 mm 0.00 in0.0 mm 0.00 in0.0 mm
09:20 AM 47.6°F8.7°C 28.9°F-1.7°C 48% 19.0 mph WSW30.6 kmh WSW 27.0 mph43.5 kmh 30.08 in1018.6 mb 0.00 in0.0 mm 0.00 in0.0 mm 0.00 in0.0 mm
09:25 AM 47.4°F8.6°C 29.2°F-1.6°C 49% 15.0 mph SW24.1 kmh SW 27.0 mph43.5 kmh 30.08 in1018.6 mb 0.00 in0.0 mm 0.00 in0.0 mm 0.00 in0.0 mm
09:30 AM 47.4°F8.6°C 27.7°F-2.4°C 46% 14.0 mph SW22.5 kmh SW 27.0 mph43.5 kmh 30.07 in1018.3 mb 0.00 in0.0 mm 0.00 in0.0 mm 0.00 in0.0 mm
09:35 AM 47.6°F8.7°C 27.9°F-2.3°C 46% 10.0 mph SW16.1 kmh SW 27.0 mph43.5 kmh 30.07 in1018.3 mb 0.00 in0.0 mm 0.00 in0.0 mm 0.00 in0.0 mm
09:40 AM 47.7°F8.7°C 27.4°F-2.6°C 45% 15.0 mph WSW24.1 kmh WSW 19.0 mph30.6 kmh 30.08 in1018.6 mb 0.00 in0.0 mm 0.00 in0.0 mm 0.00 in0.0 mm
09:45 AM 47.8°F8.8°C 27.5°F-2.5°C 45% 14.0 mph SW22.5 kmh SW 21.0 mph33.8 kmh 30.07 in1018.3 mb 0.00 in0.0 mm 0.00 in0.0 mm 0.00 in0.0 mm
09:50 AM 47.8°F8.8°C 28.0°F-2.2°C 46% 11.0 mph WSW17.7 kmh WSW 22.0 mph35.4 kmh 30.08 in1018.6 mb 0.00 in0.0 mm 0.00 in0.0 mm 0.00 in0.0 mm
09:55 AM 48.0°F8.9°C 30.3°F-0.9°C 50% 14.0 mph WSW22.5 kmh WSW 14.0 mph22.5 kmh 30.08 in1018.6 mb 0.00 in0.0 mm 0.00 in0.0 mm 0.00 in0.0 mm
10:00 AM 48.4°F9.1°C 30.1°F-1.1°C 49% 16.0 mph SW25.7 kmh SW 19.0 mph30.6 kmh 30.08 in1018.6 mb 0.00 in0.0 mm 0.00 in0.0 mm 0.00 in0.0 mm
10:05 AM 48.4°F9.1°C 28.6°F-1.9°C 46% 11.0 mph WSW17.7 kmh WSW 22.0 mph35.4 kmh 30.08 in1018.6 mb 0.00 in0.0 mm 0.00 in0.0 mm 0.00 in0.0 mm
10:10 AM 48.1°F8.9°C 28.3°F-2.1°C 46% 7.0 mph SW11.3 kmh SW 18.0 mph29.0 kmh 30.08 in1018.6 mb 0.00 in0.0 mm 0.00 in0.0 mm 0.00 in0.0 mm
10:15 AM 48.7°F9.3°C 29.4°F-1.4°C 47% 7.0 mph SW11.3 kmh SW 20.0 mph32.2 kmh 30.07 in1018.3 mb 0.00 in0.0 mm 0.00 in0.0 mm 0.00 in0.0 mm
10:20 AM 48.5°F9.2°C 28.2°F-2.1°C 45% 11.0 mph SW17.7 kmh SW 25.0 mph40.2 kmh 30.08 in1018.6 mb 0.00 in0.0 mm 0.00 in0.0 mm 0.00 in0.0 mm
10:25 AM 48.5°F9.2°C 27.6°F-2.4°C 44% 11.0 mph SW17.7 kmh SW 18.0 mph29.0 kmh 30.07 in1018.3 mb 0.00 in0.0 mm 0.00 in0.0 mm 0.00 in0.0 mm
10:30 AM 48.9°F9.4°C 29.1°F-1.6°C 46% 14.0 mph WSW22.5 kmh WSW 20.0 mph32.2 kmh 30.08 in1018.6 mb 0.00 in0.0 mm 0.00 in0.0 mm 0.00 in0.0 mm
10:35 AM 48.8°F9.3°C 28.4°F-2.0°C 45% 19.0 mph SW30.6 kmh SW 21.0 mph33.8 kmh 30.08 in1018.6 mb 0.00 in0.0 mm 0.00 in0.0 mm 0.00 in0.0 mm
10:40 AM 49.1°F9.5°C 30.3°F-0.9°C 48% 12.0 mph SW19.3 kmh SW 14.0 mph22.5 kmh 30.08 in1018.6 mb 0.00 in0.0 mm 0.00 in0.0 mm 0.00 in0.0 mm
10:45 AM 49.0°F9.4°C 28.6°F-1.9°C 45% 12.0 mph WSW19.3 kmh WSW 21.0 mph33.8 kmh 30.08 in1018.6 mb 0.00 in0.0 mm 0.00 in0.0 mm 0.00 in0.0 mm
10:50 AM 48.9°F9.4°C 27.4°F-2.6°C 43% 18.0 mph SW29.0 kmh SW 21.0 mph33.8 kmh 30.08 in1018.6 mb 0.00 in0.0 mm 0.00 in0.0 mm 0.00 in0.0 mm
10:55 AM 49.3°F9.6°C 28.9°F-1.7°C 45% 17.0 mph WSW27.4 kmh WSW 18.0 mph29.0 kmh 30.08 in1018.6 mb 0.00 in0.0 mm 0.00 in0.0 mm 0.00 in0.0 mm
11:00 AM 49.5°F9.7°C 28.5°F-1.9°C 44% 10.0 mph SW16.1 kmh SW 19.0 mph30.6 kmh 30.08 in1018.6 mb 0.00 in0.0 mm 0.00 in0.0 mm 0.00 in0.0 mm
11:05 AM 49.6°F9.8°C 28.0°F-2.2°C 43% 11.0 mph WSW17.7 kmh WSW 20.0 mph32.2 kmh 30.08 in1018.6 mb 0.00 in0.0 mm 0.00 in0.0 mm 0.00 in0.0 mm
11:10 AM 49.7°F9.8°C 29.2°F-1.6°C 45% 8.0 mph WSW12.9 kmh WSW 9.0 mph14.5 kmh 30.08 in1018.6 mb 0.00 in0.0 mm 0.00 in0.0 mm 0.00 in0.0 mm
11:15 AM 49.9°F9.9°C 28.3°F-2.1°C 43% 12.0 mph SW19.3 kmh SW 19.0 mph30.6 kmh 30.08 in1018.6 mb 0.00 in0.0 mm 0.00 in0.0 mm 0.00 in0.0 mm
11:20 AM 50.1°F10.1°C 27.3°F-2.6°C 41% 11.0 mph SW17.7 kmh SW 21.0 mph33.8 kmh 30.07 in1018.3 mb 0.00 in0.0 mm 0.00 in0.0 mm 0.00 in0.0 mm
11:25 AM 49.7°F9.8°C 26.4°F-3.1°C 40% 12.0 mph SW19.3 kmh SW 18.0 mph29.0 kmh 30.07 in1018.3 mb 0.00 in0.0 mm 0.00 in0.0 mm 0.00 in0.0 mm
11:30 AM 50.2°F10.1°C 28.6°F-1.9°C 43% 13.0 mph SSW20.9 kmh SSW 18.0 mph29.0 kmh 30.07 in1018.3 mb 0.00 in0.0 mm 0.00 in0.0 mm 0.00 in0.0 mm
11:35 AM 50.1°F10.1°C 27.9°F-2.3°C 42% 6.0 mph SW9.7 kmh SW 20.0 mph32.2 kmh 30.07 in1018.3 mb 0.00 in0.0 mm 0.00 in0.0 mm 0.00 in0.0 mm
11:40 AM 50.2°F10.1°C 28.0°F-2.2°C 42% 9.0 mph SW14.5 kmh SW 19.0 mph30.6 kmh 30.07 in1018.3 mb 0.00 in0.0 mm 0.00 in0.0 mm 0.00 in0.0 mm
11:45 AM 50.5°F10.3°C 28.9°F-1.7°C 43% 8.0 mph WSW12.9 kmh WSW 19.0 mph30.6 kmh 30.07 in1018.3 mb 0.00 in0.0 mm 0.00 in0.0 mm 0.00 in0.0 mm
11:50 AM 50.5°F10.3°C 27.1°F-2.7°C 40% 18.0 mph WSW29.0 kmh WSW 28.0 mph45.1 kmh 30.06 in1017.9 mb 0.00 in0.0 mm 0.00 in0.0 mm 0.00 in0.0 mm
11:55 AM 50.0°F10.0°C 26.7°F-2.9°C 40% 8.0 mph WSW12.9 kmh WSW 15.0 mph24.1 kmh 30.06 in1017.9 mb 0.00 in0.0 mm 0.00 in0.0 mm 0.00 in0.0 mm
12:00 PM 50.4°F10.2°C 29.9°F-1.2°C 45% 15.0 mph WSW24.1 kmh WSW 20.0 mph32.2 kmh 30.06 in1017.9 mb 0.00 in0.0 mm 0.00 in0.0 mm 0.00 in0.0 mm
12:05 PM 50.4°F10.2°C 28.2°F-2.1°C 42% 5.0 mph SW8.0 kmh SW 21.0 mph33.8 kmh 30.06 in1017.9 mb 0.00 in0.0 mm 0.00 in0.0 mm 0.00 in0.0 mm
12:10 PM 50.4°F10.2°C 27.0°F-2.8°C 40% 8.0 mph SW12.9 kmh SW 16.0 mph25.7 kmh 30.06 in1017.9 mb 0.00 in0.0 mm 0.00 in0.0 mm 0.00 in0.0 mm
12:15 PM 50.4°F10.2°C 27.0°F-2.8°C 40% 9.0 mph WSW14.5 kmh WSW 20.0 mph32.2 kmh 30.07 in1018.3 mb 0.00 in0.0 mm 0.00 in0.0 mm 0.00 in0.0 mm
12:20 PM 50.5°F10.3°C 28.9°F-1.7°C 43% 15.0 mph SW24.1 kmh SW 20.0 mph32.2 kmh 30.06 in1017.9 mb 0.00 in0.0 mm 0.00 in0.0 mm 0.00 in0.0 mm
12:25 PM 50.7°F10.4°C 29.0°F-1.7°C 43% 9.0 mph WSW14.5 kmh WSW 14.0 mph22.5 kmh 30.06 in1017.9 mb 0.00 in0.0 mm 0.00 in0.0 mm 0.00 in0.0 mm
12:30 PM 50.7°F10.4°C 26.7°F-2.9°C 39% 11.0 mph SW17.7 kmh SW 23.0 mph37.0 kmh 30.06 in1017.9 mb 0.00 in0.0 mm 0.00 in0.0 mm 0.00 in0.0 mm
12:35 PM 50.5°F10.3°C 27.1°F-2.7°C 40% 14.0 mph SW22.5 kmh SW 23.0 mph37.0 kmh 30.06 in1017.9 mb 0.00 in0.0 mm 0.00 in0.0 mm 0.00 in0.0 mm
12:40 PM 51.1°F10.6°C 28.8°F-1.8°C 42% 6.0 mph SW9.7 kmh SW 13.0 mph20.9 kmh 30.06 in1017.9 mb 0.00 in0.0 mm 0.00 in0.0 mm 0.00 in0.0 mm
12:45 PM 51.9°F11.1°C 29.0°F-1.7°C 41% 5.0 mph WSW8.0 kmh WSW 13.0 mph20.9 kmh 30.06 in1017.9 mb 0.00 in0.0 mm 0.00 in0.0 mm 0.00 in0.0 mm
12:50 PM 51.7°F10.9°C 27.6°F-2.4°C 39% 11.0 mph WSW17.7 kmh WSW 19.0 mph30.6 kmh 30.06 in1017.9 mb 0.00 in0.0 mm 0.00 in0.0 mm 0.00 in0.0 mm
12:55 PM 51.8°F11.0°C 28.3°F-2.1°C 40% 12.0 mph SW19.3 kmh SW 17.0 mph27.4 kmh 30.05 in1017.6 mb 0.00 in0.0 mm 0.00 in0.0 mm 0.00 in0.0 mm
01:00 PM 52.2°F11.2°C 27.4°F-2.6°C 38% 9.0 mph WSW14.5 kmh WSW 17.0 mph27.4 kmh 30.06 in1017.9 mb 0.00 in0.0 mm 0.00 in0.0 mm 0.00 in0.0 mm
01:05 PM 51.8°F11.0°C 27.7°F-2.4°C 39% 15.0 mph WSW24.1 kmh WSW 19.0 mph30.6 kmh 30.06 in1017.9 mb 0.00 in0.0 mm 0.00 in0.0 mm 0.00 in0.0 mm
01:10 PM 51.9°F11.1°C 27.7°F-2.4°C 39% 11.0 mph WSW17.7 kmh WSW 16.0 mph25.7 kmh 30.06 in1017.9 mb 0.00 in0.0 mm 0.00 in0.0 mm 0.00 in0.0 mm
01:15 PM 51.9°F11.1°C 27.7°F-2.4°C 39% 12.0 mph WSW19.3 kmh WSW 16.0 mph25.7 kmh 30.05 in1017.6 mb 0.00 in0.0 mm 0.00 in0.0 mm 0.00 in0.0 mm
01:20 PM 51.8°F11.0°C 28.3°F-2.1°C 40% 8.0 mph WSW12.9 kmh WSW 16.0 mph25.7 kmh 30.05 in1017.6 mb 0.00 in0.0 mm 0.00 in0.0 mm 0.00 in0.0 mm
01:25 PM 52.4°F11.3°C 30.6°F-0.8°C 43% 10.0 mph WSW16.1 kmh WSW 10.0 mph16.1 kmh 30.04 in1017.3 mb 0.00 in0.0 mm 0.00 in0.0 mm 0.00 in0.0 mm
01:30 PM 52.3°F11.3°C 26.8°F-2.9°C 37% 10.0 mph WSW16.1 kmh WSW 14.0 mph22.5 kmh 30.04 in1017.3 mb 0.00 in0.0 mm 0.00 in0.0 mm 0.00 in0.0 mm
01:35 PM 52.4°F11.3°C 27.6°F-2.4°C 38% 7.0 mph SW11.3 kmh SW 17.0 mph27.4 kmh 30.04 in1017.3 mb 0.00 in0.0 mm 0.00 in0.0 mm 0.00 in0.0 mm
01:40 PM 52.8°F11.6°C 30.4°F-0.9°C 42% 14.0 mph WSW22.5 kmh WSW 14.0 mph22.5 kmh 30.04 in1017.3 mb 0.00 in0.0 mm 0.00 in0.0 mm 0.00 in0.0 mm
01:45 PM 52.6°F11.4°C 28.4°F-2.0°C 39% 9.0 mph WSW14.5 kmh WSW 17.0 mph27.4 kmh 30.04 in1017.3 mb 0.00 in0.0 mm 0.00 in0.0 mm 0.00 in0.0 mm
01:50 PM 52.5°F11.4°C 28.9°F-1.7°C 40% 8.0 mph SW12.9 kmh SW 17.0 mph27.4 kmh 30.03 in1016.9 mb 0.00 in0.0 mm 0.00 in0.0 mm 0.00 in0.0 mm
01:55 PM 52.9°F11.6°C 28.0°F-2.2°C 38% 7.0 mph SW11.3 kmh SW 13.0 mph20.9 kmh 30.03 in1016.9 mb 0.00 in0.0 mm 0.00 in0.0 mm 0.00 in0.0 mm
02:00 PM 53.0°F11.7°C 29.3°F-1.5°C 40% 8.0 mph SW12.9 kmh SW 13.0 mph20.9 kmh 30.03 in1016.9 mb 0.00 in0.0 mm 0.00 in0.0 mm 0.00 in0.0 mm
02:05 PM 53.4°F11.9°C 28.5°F-1.9°C 38% 5.0 mph SW8.0 kmh SW 13.0 mph20.9 kmh 30.03 in1016.9 mb 0.00 in0.0 mm 0.00 in0.0 mm 0.00 in0.0 mm
02:10 PM 52.9°F11.6°C 28.6°F-1.9°C 39% 8.0 mph SW12.9 kmh SW 15.0 mph24.1 kmh 30.03 in1016.9 mb 0.00 in0.0 mm 0.00 in0.0 mm 0.00 in0.0 mm
02:15 PM 53.2°F11.8°C 28.3°F-2.1°C 38% 6.0 mph WSW9.7 kmh WSW 19.0 mph30.6 kmh 30.04 in1017.3 mb 0.00 in0.0 mm 0.00 in0.0 mm 0.00 in0.0 mm
02:20 PM 53.4°F11.9°C 27.8°F-2.3°C 37% 11.0 mph SW17.7 kmh SW 19.0 mph30.6 kmh 30.03 in1016.9 mb 0.00 in0.0 mm 0.00 in0.0 mm 0.00 in0.0 mm
02:25 PM 53.3°F11.8°C 25.7°F-3.5°C 34% 11.0 mph SW17.7 kmh SW 20.0 mph32.2 kmh 30.03 in1016.9 mb 0.00 in0.0 mm 0.00 in0.0 mm 0.00 in0.0 mm
02:30 PM 53.1°F11.7°C 26.2°F-3.2°C 35% 12.0 mph SW19.3 kmh SW 20.0 mph32.2 kmh 30.03 in1016.9 mb 0.00 in0.0 mm 0.00 in0.0 mm 0.00 in0.0 mm
02:35 PM 53.1°F11.7°C 28.8°F-1.8°C 39% 8.0 mph WSW12.9 kmh WSW 20.0 mph32.2 kmh 30.02 in1016.6 mb 0.00 in0.0 mm 0.00 in0.0 mm 0.00 in0.0 mm
02:40 PM 53.0°F11.7°C 28.7°F-1.8°C 39% 5.0 mph SW8.0 kmh SW 11.0 mph17.7 kmh 30.03 in1016.9 mb 0.00 in0.0 mm 0.00 in0.0 mm 0.00 in0.0 mm
02:45 PM 53.4°F11.9°C 27.8°F-2.3°C 37% 10.0 mph SW16.1 kmh SW 11.0 mph17.7 kmh 30.03 in1016.9 mb 0.00 in0.0 mm 0.00 in0.0 mm 0.00 in0.0 mm
02:50 PM 53.5°F11.9°C 27.9°F-2.3°C 37% 8.0 mph SW12.9 kmh SW 11.0 mph17.7 kmh 30.02 in1016.6 mb 0.00 in0.0 mm 0.00 in0.0 mm 0.00 in0.0 mm
02:55 PM 53.7°F12.1°C 26.7°F-2.9°C 35% 6.0 mph SW9.7 kmh SW 13.0 mph20.9 kmh 30.03 in1016.9 mb 0.00 in0.0 mm 0.00 in0.0 mm 0.00 in0.0 mm
03:00 PM 53.8°F12.1°C 27.5°F-2.5°C 36% 1.0 mph SW1.6 kmh SW 13.0 mph20.9 kmh 30.03 in1016.9 mb 0.00 in0.0 mm 0.00 in0.0 mm 0.00 in0.0 mm
03:05 PM 53.7°F12.1°C 27.4°F-2.6°C 36% 6.0 mph SSW9.7 kmh SSW 16.0 mph25.7 kmh 30.03 in1016.9 mb 0.00 in0.0 mm 0.00 in0.0 mm 0.00 in0.0 mm
03:10 PM 53.7°F12.1°C 26.0°F-3.3°C 34% 4.0 mph SSW6.4 kmh SSW 13.0 mph20.9 kmh 30.03 in1016.9 mb 0.00 in0.0 mm 0.00 in0.0 mm 0.00 in0.0 mm
03:15 PM 54.0°F12.2°C 24.8°F-4.0°C 32% 5.0 mph S8.0 kmh S 17.0 mph27.4 kmh 30.02 in1016.6 mb 0.00 in0.0 mm 0.00 in0.0 mm 0.00 in0.0 mm
03:20 PM 54.2°F12.3°C 27.9°F-2.3°C 36% 5.0 mph SSW8.0 kmh SSW 17.0 mph27.4 kmh 30.02 in1016.6 mb 0.00 in0.0 mm 0.00 in0.0 mm 0.00 in0.0 mm
03:25 PM 54.3°F12.4°C 27.3°F-2.6°C 35% 9.0 mph SW14.5 kmh SW 14.0 mph22.5 kmh 30.02 in1016.6 mb 0.00 in0.0 mm 0.00 in0.0 mm 0.00 in0.0 mm
03:30 PM 54.0°F12.2°C 25.6°F-3.6°C 33% 5.0 mph SSW8.0 kmh SSW 14.0 mph22.5 kmh 30.02 in1016.6 mb 0.00 in0.0 mm 0.00 in0.0 mm 0.00 in0.0 mm
03:35 PM 54.0°F12.2°C 24.8°F-4.0°C 32% 6.0 mph SSW9.7 kmh SSW 14.0 mph22.5 kmh 30.02 in1016.6 mb 0.00 in0.0 mm 0.00 in0.0 mm 0.00 in0.0 mm
03:40 PM 54.1°F12.3°C 25.7°F-3.5°C 33% 4.0 mph SW6.4 kmh SW 5.0 mph8.0 kmh 30.02 in1016.6 mb 0.00 in0.0 mm 0.00 in0.0 mm 0.00 in0.0 mm
03:45 PM 54.5°F12.5°C 27.4°F-2.6°C 35% 3.0 mph WSW4.8 kmh WSW 9.0 mph14.5 kmh 30.02 in1016.6 mb 0.00 in0.0 mm 0.00 in0.0 mm 0.00 in0.0 mm
03:50 PM 54.2°F12.3°C 28.5°F-1.9°C 37% 7.0 mph WSW11.3 kmh WSW 13.0 mph20.9 kmh 30.02 in1016.6 mb 0.00 in0.0 mm 0.00 in0.0 mm 0.00 in0.0 mm
03:55 PM 54.2°F12.3°C 27.9°F-2.3°C 36% 3.0 mph WSW4.8 kmh WSW 8.0 mph12.9 kmh 30.02 in1016.6 mb 0.00 in0.0 mm 0.00 in0.0 mm 0.00 in0.0 mm
04:00 PM 54.4°F12.4°C 28.0°F-2.2°C 36% 4.0 mph WSW6.4 kmh WSW 13.0 mph20.9 kmh 30.01 in1016.3 mb 0.00 in0.0 mm 0.00 in0.0 mm 0.00 in0.0 mm
04:05 PM 54.2°F12.3°C 27.2°F-2.7°C 35% 13.0 mph WSW20.9 kmh WSW 14.0 mph22.5 kmh 30.01 in1016.3 mb 0.00 in0.0 mm 0.00 in0.0 mm 0.00 in0.0 mm
04:10 PM 53.9°F12.2°C 25.5°F-3.6°C 33% 4.0 mph WSW6.4 kmh WSW 9.0 mph14.5 kmh 30.01 in1016.3 mb 0.00 in0.0 mm 0.00 in0.0 mm 0.00 in0.0 mm
04:15 PM 54.1°F12.3°C 28.4°F-2.0°C 37% 10.0 mph SW16.1 kmh SW 11.0 mph17.7 kmh 30.01 in1016.3 mb 0.00 in0.0 mm 0.00 in0.0 mm 0.00 in0.0 mm
04:20 PM 54.2°F12.3°C 29.8°F-1.2°C 39% 5.0 mph SW8.0 kmh SW 15.0 mph24.1 kmh 30.01 in1016.3 mb 0.00 in0.0 mm 0.00 in0.0 mm 0.00 in0.0 mm
04:25 PM 54.4°F12.4°C 29.3°F-1.5°C 38% 8.0 mph SW12.9 kmh SW 8.0 mph12.9 kmh 30.01 in1016.3 mb 0.00 in0.0 mm 0.00 in0.0 mm 0.00 in0.0 mm
04:30 PM 54.4°F12.4°C 29.3°F-1.5°C 38% 5.0 mph WSW8.0 kmh WSW 10.0 mph16.1 kmh 30.01 in1016.3 mb 0.00 in0.0 mm 0.00 in0.0 mm 0.00 in0.0 mm
04:35 PM 53.9°F12.2°C 28.9°F-1.7°C 38% 9.0 mph WSW14.5 kmh WSW 11.0 mph17.7 kmh 30.01 in1016.3 mb 0.00 in0.0 mm 0.00 in0.0 mm 0.00 in0.0 mm
04:40 PM 53.9°F12.2°C 26.2°F-3.2°C 34% 5.0 mph SW8.0 kmh SW 8.0 mph12.9 kmh 30.02 in1016.6 mb 0.00 in0.0 mm 0.00 in0.0 mm 0.00 in0.0 mm
04:45 PM 53.7°F12.1°C 28.1°F-2.2°C 37% 10.0 mph WSW16.1 kmh WSW 13.0 mph20.9 kmh 30.01 in1016.3 mb 0.00 in0.0 mm 0.00 in0.0 mm 0.00 in0.0 mm
04:50 PM 53.7°F12.1°C 28.1°F-2.2°C 37% 5.0 mph WSW8.0 kmh WSW 13.0 mph20.9 kmh 30.01 in1016.3 mb 0.00 in0.0 mm 0.00 in0.0 mm 0.00 in0.0 mm
04:55 PM 53.7°F12.1°C 28.7°F-1.8°C 38% 8.0 mph WSW12.9 kmh WSW 9.0 mph14.5 kmh 30.01 in1016.3 mb 0.00 in0.0 mm 0.00 in0.0 mm 0.00 in0.0 mm
05:00 PM 53.5°F11.9°C 27.9°F-2.3°C 37% 7.0 mph WSW11.3 kmh WSW 12.0 mph19.3 kmh 30.02 in1016.6 mb 0.00 in0.0 mm 0.00 in0.0 mm 0.00 in0.0 mm
05:05 PM 53.4°F11.9°C 27.1°F-2.7°C 36% 5.0 mph WSW8.0 kmh WSW 13.0 mph20.9 kmh 30.02 in1016.6 mb 0.00 in0.0 mm 0.00 in0.0 mm 0.00 in0.0 mm
05:10 PM 53.5°F11.9°C 28.5°F-1.9°C 38% 11.0 mph SW17.7 kmh SW 11.0 mph17.7 kmh 30.01 in1016.3 mb 0.00 in0.0 mm 0.00 in0.0 mm 0.00 in0.0 mm
05:15 PM 53.6°F12.0°C 29.3°F-1.5°C 39% 8.0 mph WSW12.9 kmh WSW 12.0 mph19.3 kmh 30.01 in1016.3 mb 0.00 in0.0 mm 0.00 in0.0 mm 0.00 in0.0 mm
05:20 PM 53.5°F11.9°C 27.9°F-2.3°C 37% 5.0 mph WSW8.0 kmh WSW 12.0 mph19.3 kmh 30.02 in1016.6 mb 0.00 in0.0 mm 0.00 in0.0 mm 0.00 in0.0 mm
05:25 PM 53.6°F12.0°C 28.6°F-1.9°C 38% 3.0 mph WSW4.8 kmh WSW 8.0 mph12.9 kmh 30.02 in1016.6 mb 0.00 in0.0 mm 0.00 in0.0 mm 0.00 in0.0 mm
05:30 PM 53.5°F11.9°C 27.9°F-2.3°C 37% 4.0 mph SW6.4 kmh SW 10.0 mph16.1 kmh 30.02 in1016.6 mb 0.00 in0.0 mm 0.00 in0.0 mm 0.00 in0.0 mm
05:35 PM 53.3°F11.8°C 28.4°F-2.0°C 38% 5.0 mph SW8.0 kmh SW 10.0 mph16.1 kmh 30.02 in1016.6 mb 0.00 in0.0 mm 0.00 in0.0 mm 0.00 in0.0 mm
05:40 PM 53.0°F11.7°C 28.7°F-1.8°C 39% 4.0 mph WSW6.4 kmh WSW 6.0 mph9.7 kmh 30.03 in1016.9 mb 0.00 in0.0 mm 0.00 in0.0 mm 0.00 in0.0 mm
05:45 PM 52.8°F11.6°C 29.8°F-1.2°C 41% 3.0 mph SW4.8 kmh SW 10.0 mph16.1 kmh 30.02 in1016.6 mb 0.00 in0.0 mm 0.00 in0.0 mm 0.00 in0.0 mm
05:50 PM 52.8°F11.6°C 30.9°F-0.6°C 43% 2.0 mph SW3.2 kmh SW 10.0 mph16.1 kmh 30.02 in1016.6 mb 0.00 in0.0 mm 0.00 in0.0 mm 0.00 in0.0 mm
05:55 PM 52.8°F11.6°C 31.5°F-0.3°C 44% 4.0 mph SW6.4 kmh SW 5.0 mph8.0 kmh 30.03 in1016.9 mb 0.00 in0.0 mm 0.00 in0.0 mm 0.00 in0.0 mm
06:00 PM 52.6°F11.4°C 31.3°F-0.4°C 44% 2.0 mph SW3.2 kmh SW 6.0 mph9.7 kmh 30.03 in1016.9 mb 0.00 in0.0 mm 0.00 in0.0 mm 0.00 in0.0 mm
06:05 PM 52.4°F11.3°C 30.6°F-0.8°C 43% 1.0 mph SW1.6 kmh SW 6.0 mph9.7 kmh 30.04 in1017.3 mb 0.00 in0.0 mm 0.00 in0.0 mm 0.00 in0.0 mm
06:10 PM 52.3°F11.3°C 31.1°F-0.5°C 44% 2.0 mph SW3.2 kmh SW 2.0 mph3.2 kmh 30.04 in1017.3 mb 0.00 in0.0 mm 0.00 in0.0 mm 0.00 in0.0 mm
06:15 PM 52.2°F11.2°C 31.5°F-0.3°C 45% 2.0 mph SW3.2 kmh SW 2.0 mph3.2 kmh 30.04 in1017.3 mb 0.00 in0.0 mm 0.00 in0.0 mm 0.00 in0.0 mm
06:20 PM 52.0°F11.1°C 31.3°F-0.4°C 45% 3.0 mph SW4.8 kmh SW 4.0 mph6.4 kmh 30.04 in1017.3 mb 0.00 in0.0 mm 0.00 in0.0 mm 0.00 in0.0 mm
06:25 PM 51.8°F11.0°C 32.2°F0.1°C 47% 2.0 mph SW3.2 kmh SW 3.0 mph4.8 kmh 30.05 in1017.6 mb 0.00 in0.0 mm 0.00 in0.0 mm 0.00 in0.0 mm
06:30 PM 51.6°F10.9°C 31.0°F-0.6°C 45% 1.0 mph SW1.6 kmh SW 3.0 mph4.8 kmh 30.05 in1017.6 mb 0.00 in0.0 mm 0.00 in0.0 mm 0.00 in0.0 mm
06:35 PM 51.4°F10.8°C 30.2°F-1.0°C 44% Calm Calm 3.0 mph4.8 kmh 30.05 in1017.6 mb 0.00 in0.0 mm 0.00 in0.0 mm 0.00 in0.0 mm
06:40 PM 51.2°F10.7°C 29.5°F-1.4°C 43% 3.0 mph SW4.8 kmh SW 4.0 mph6.4 kmh 30.06 in1017.9 mb 0.00 in0.0 mm 0.00 in0.0 mm 0.00 in0.0 mm
06:45 PM 50.9°F10.5°C 28.1°F-2.2°C 41% 3.0 mph SW4.8 kmh SW 10.0 mph16.1 kmh 30.06 in1017.9 mb 0.00 in0.0 mm 0.00 in0.0 mm 0.00 in0.0 mm
06:50 PM 50.8°F10.4°C 29.1°F-1.6°C 43% 6.0 mph SW9.7 kmh SW 10.0 mph16.1 kmh 30.06 in1017.9 mb 0.00 in0.0 mm 0.00 in0.0 mm 0.00 in0.0 mm
06:55 PM 50.7°F10.4°C 28.5°F-1.9°C 42% 5.0 mph WSW8.0 kmh WSW 9.0 mph14.5 kmh 30.07 in1018.3 mb 0.00 in0.0 mm 0.00 in0.0 mm 0.00 in0.0 mm
07:00 PM 50.7°F10.4°C 27.9°F-2.3°C 41% 3.0 mph WSW4.8 kmh WSW 13.0 mph20.9 kmh 30.07 in1018.3 mb 0.00 in0.0 mm 0.00 in0.0 mm 0.00 in0.0 mm
07:05 PM 50.6°F10.3°C 29.0°F-1.7°C 43% 3.0 mph WSW4.8 kmh WSW 13.0 mph20.9 kmh 30.07 in1018.3 mb 0.00 in0.0 mm 0.00 in0.0 mm 0.00 in0.0 mm
07:10 PM 50.5°F10.3°C 27.7°F-2.4°C 41% 4.0 mph WSW6.4 kmh WSW 12.0 mph19.3 kmh 30.07 in1018.3 mb 0.00 in0.0 mm 0.00 in0.0 mm 0.00 in0.0 mm
07:15 PM 50.4°F10.2°C 28.2°F-2.1°C 42% 9.0 mph WSW14.5 kmh WSW 13.0 mph20.9 kmh 30.07 in1018.3 mb 0.00 in0.0 mm 0.00 in0.0 mm 0.00 in0.0 mm
07:20 PM 50.3°F10.2°C 26.3°F-3.2°C 39% 8.0 mph WSW12.9 kmh WSW 14.0 mph22.5 kmh 30.07 in1018.3 mb 0.00 in0.0 mm 0.00 in0.0 mm 0.00 in0.0 mm
07:25 PM 50.2°F10.1°C 27.4°F-2.6°C 41% 9.0 mph WSW14.5 kmh WSW 11.0 mph17.7 kmh 30.08 in1018.6 mb 0.00 in0.0 mm 0.00 in0.0 mm 0.00 in0.0 mm
07:30 PM 50.0°F10.0°C 26.7°F-2.9°C 40% 4.0 mph WSW6.4 kmh WSW 11.0 mph17.7 kmh 30.08 in1018.6 mb 0.00 in0.0 mm 0.00 in0.0 mm 0.00 in0.0 mm
07:35 PM 49.8°F9.9°C 27.7°F-2.4°C 42% 12.0 mph WSW19.3 kmh WSW 16.0 mph25.7 kmh 30.09 in1019.0 mb 0.00 in0.0 mm 0.00 in0.0 mm 0.00 in0.0 mm
07:40 PM 49.6°F9.8°C 28.6°F-1.9°C 44% 10.0 mph WSW16.1 kmh WSW 13.0 mph20.9 kmh 30.09 in1019.0 mb 0.00 in0.0 mm 0.00 in0.0 mm 0.00 in0.0 mm
07:45 PM 49.5°F9.7°C 27.4°F-2.6°C 42% 6.0 mph WSW9.7 kmh WSW 18.0 mph29.0 kmh 30.09 in1019.0 mb 0.00 in0.0 mm 0.00 in0.0 mm 0.00 in0.0 mm
07:50 PM 49.3°F9.6°C 27.2°F-2.7°C 42% 11.0 mph WSW17.7 kmh WSW 18.0 mph29.0 kmh 30.10 in1019.3 mb 0.00 in0.0 mm 0.00 in0.0 mm 0.00 in0.0 mm
07:55 PM 49.1°F9.5°C 27.6°F-2.4°C 43% 11.0 mph SW17.7 kmh SW 13.0 mph20.9 kmh 30.10 in1019.3 mb 0.00 in0.0 mm 0.00 in0.0 mm 0.00 in0.0 mm
08:00 PM 48.9°F9.4°C 26.8°F-2.9°C 42% 7.0 mph WSW11.3 kmh WSW 13.0 mph20.9 kmh 30.10 in1019.3 mb 0.00 in0.0 mm 0.00 in0.0 mm 0.00 in0.0 mm
08:05 PM 48.8°F9.3°C 26.7°F-2.9°C 42% 6.0 mph SW9.7 kmh SW 13.0 mph20.9 kmh 30.10 in1019.3 mb 0.00 in0.0 mm 0.00 in0.0 mm 0.00 in0.0 mm
08:10 PM 48.6°F9.2°C 26.6°F-3.0°C 42% 5.0 mph WSW8.0 kmh WSW 11.0 mph17.7 kmh 30.10 in1019.3 mb 0.00 in0.0 mm 0.00 in0.0 mm 0.00 in0.0 mm
08:15 PM 48.5°F9.2°C 26.5°F-3.1°C 42% 10.0 mph WSW16.1 kmh WSW 15.0 mph24.1 kmh 30.11 in1019.6 mb 0.00 in0.0 mm 0.00 in0.0 mm 0.00 in0.0 mm
08:20 PM 48.3°F9.1°C 26.3°F-3.2°C 42% 9.0 mph WSW14.5 kmh WSW 16.0 mph25.7 kmh 30.11 in1019.6 mb 0.00 in0.0 mm 0.00 in0.0 mm 0.00 in0.0 mm
08:25 PM 48.2°F9.0°C 26.8°F-2.9°C 43% 10.0 mph WSW16.1 kmh WSW 13.0 mph20.9 kmh 30.12 in1020.0 mb 0.00 in0.0 mm 0.00 in0.0 mm 0.00 in0.0 mm
08:30 PM 48.1°F8.9°C 26.7°F-2.9°C 43% 9.0 mph WSW14.5 kmh WSW 14.0 mph22.5 kmh 30.12 in1020.0 mb 0.00 in0.0 mm 0.00 in0.0 mm 0.00 in0.0 mm
08:35 PM 48.0°F8.9°C 27.7°F-2.4°C 45% 7.0 mph WSW11.3 kmh WSW 14.0 mph22.5 kmh 30.12 in1020.0 mb 0.00 in0.0 mm 0.00 in0.0 mm 0.00 in0.0 mm
08:40 PM 47.8°F8.8°C 27.0°F-2.8°C 44% 8.0 mph WSW12.9 kmh WSW 8.0 mph12.9 kmh 30.12 in1020.0 mb 0.00 in0.0 mm 0.00 in0.0 mm 0.00 in0.0 mm
08:45 PM 47.7°F8.7°C 26.9°F-2.8°C 44% 3.0 mph WSW4.8 kmh WSW 11.0 mph17.7 kmh 30.13 in1020.3 mb 0.00 in0.0 mm 0.00 in0.0 mm 0.00 in0.0 mm
08:50 PM 47.5°F8.6°C 27.2°F-2.7°C 45% 4.0 mph WSW6.4 kmh WSW 11.0 mph17.7 kmh 30.12 in1020.0 mb 0.00 in0.0 mm 0.00 in0.0 mm 0.00 in0.0 mm
08:55 PM 47.2°F8.4°C 26.4°F-3.1°C 44% 5.0 mph WSW8.0 kmh WSW 14.0 mph22.5 kmh 30.12 in1020.0 mb 0.00 in0.0 mm 0.00 in0.0 mm 0.00 in0.0 mm
09:00 PM 47.0°F8.3°C 26.8°F-2.9°C 45% 10.0 mph WSW16.1 kmh WSW 15.0 mph24.1 kmh 30.13 in1020.3 mb 0.00 in0.0 mm 0.00 in0.0 mm 0.00 in0.0 mm
09:05 PM 46.8°F8.2°C 27.1°F-2.7°C 46% 12.0 mph WSW19.3 kmh WSW 16.0 mph25.7 kmh 30.13 in1020.3 mb 0.00 in0.0 mm 0.00 in0.0 mm 0.00 in0.0 mm
09:10 PM 46.7°F8.2°C 27.0°F-2.8°C 46% 7.0 mph WSW11.3 kmh WSW 15.0 mph24.1 kmh 30.13 in1020.3 mb 0.00 in0.0 mm 0.00 in0.0 mm 0.00 in0.0 mm
09:15 PM 46.5°F8.1°C 27.4°F-2.6°C 47% 9.0 mph WSW14.5 kmh WSW 15.0 mph24.1 kmh 30.14 in1020.7 mb 0.00 in0.0 mm 0.00 in0.0 mm 0.00 in0.0 mm
09:20 PM 46.3°F7.9°C 26.1°F-3.3°C 45% 8.0 mph WSW12.9 kmh WSW 15.0 mph24.1 kmh 30.14 in1020.7 mb 0.00 in0.0 mm 0.00 in0.0 mm 0.00 in0.0 mm
09:25 PM 46.2°F7.9°C 26.6°F-3.0°C 46% 10.0 mph SW16.1 kmh SW 12.0 mph19.3 kmh 30.14 in1020.7 mb 0.00 in0.0 mm 0.00 in0.0 mm 0.00 in0.0 mm
09:30 PM 46.0°F7.8°C 26.4°F-3.1°C 46% 11.0 mph WSW17.7 kmh WSW 16.0 mph25.7 kmh 30.15 in1021.0 mb 0.00 in0.0 mm 0.00 in0.0 mm 0.00 in0.0 mm
09:35 PM 46.0°F7.8°C 26.9°F-2.8°C 47% 8.0 mph WSW12.9 kmh WSW 16.0 mph25.7 kmh 30.15 in1021.0 mb 0.00 in0.0 mm 0.00 in0.0 mm 0.00 in0.0 mm
09:40 PM 45.8°F7.7°C 26.2°F-3.2°C 46% 7.0 mph WSW11.3 kmh WSW 10.0 mph16.1 kmh 30.15 in1021.0 mb 0.00 in0.0 mm 0.00 in0.0 mm 0.00 in0.0 mm
09:45 PM 45.7°F7.6°C 26.6°F-3.0°C 47% 8.0 mph WSW12.9 kmh WSW 12.0 mph19.3 kmh 30.14 in1020.7 mb 0.00 in0.0 mm 0.00 in0.0 mm 0.00 in0.0 mm
09:50 PM 45.5°F7.5°C 26.5°F-3.1°C 47% 7.0 mph WSW11.3 kmh WSW 12.0 mph19.3 kmh 30.15 in1021.0 mb 0.00 in0.0 mm 0.00 in0.0 mm 0.00 in0.0 mm
09:55 PM 45.4°F7.4°C 25.9°F-3.4°C 46% 5.0 mph WSW8.0 kmh WSW 10.0 mph16.1 kmh 30.15 in1021.0 mb 0.00 in0.0 mm 0.00 in0.0 mm 0.00 in0.0 mm
10:00 PM 45.2°F7.3°C 25.7°F-3.5°C 46% 8.0 mph WSW12.9 kmh WSW 13.0 mph20.9 kmh 30.14 in1020.7 mb 0.00 in0.0 mm 0.00 in0.0 mm 0.00 in0.0 mm
10:05 PM 45.2°F7.3°C 26.2°F-3.2°C 47% 6.0 mph WSW9.7 kmh WSW 15.0 mph24.1 kmh 30.15 in1021.0 mb 0.00 in0.0 mm 0.00 in0.0 mm 0.00 in0.0 mm
10:10 PM 45.3°F7.4°C 26.3°F-3.2°C 47% 7.0 mph WSW11.3 kmh WSW 9.0 mph14.5 kmh 30.15 in1021.0 mb 0.00 in0.0 mm 0.00 in0.0 mm 0.00 in0.0 mm
10:15 PM 45.2°F7.3°C 26.2°F-3.2°C 47% 7.0 mph WSW11.3 kmh WSW 10.0 mph16.1 kmh 30.15 in1021.0 mb 0.00 in0.0 mm 0.00 in0.0 mm 0.00 in0.0 mm
10:20 PM 45.0°F7.2°C 26.5°F-3.1°C 48% 9.0 mph WSW14.5 kmh WSW 11.0 mph17.7 kmh 30.14 in1020.7 mb 0.00 in0.0 mm 0.00 in0.0 mm 0.00 in0.0 mm
10:25 PM 44.9°F7.2°C 25.9°F-3.4°C 47% 8.0 mph WSW12.9 kmh WSW 15.0 mph24.1 kmh 30.15 in1021.0 mb 0.00 in0.0 mm 0.00 in0.0 mm 0.00 in0.0 mm
10:30 PM 44.8°F7.1°C 25.8°F-3.4°C 47% 6.0 mph WSW9.7 kmh WSW 16.0 mph25.7 kmh 30.15 in1021.0 mb 0.00 in0.0 mm 0.00 in0.0 mm 0.00 in0.0 mm
10:35 PM 44.6°F7.0°C 26.1°F-3.3°C 48% 7.0 mph WSW11.3 kmh WSW 16.0 mph25.7 kmh 30.15 in1021.0 mb 0.00 in0.0 mm 0.00 in0.0 mm 0.00 in0.0 mm
10:40 PM 44.5°F6.9°C 26.6°F-3.0°C 49% 5.0 mph WSW8.0 kmh WSW 9.0 mph14.5 kmh 30.15 in1021.0 mb 0.00 in0.0 mm 0.00 in0.0 mm 0.00 in0.0 mm
10:45 PM 44.4°F6.9°C 26.5°F-3.1°C 49% 3.0 mph WSW4.8 kmh WSW 12.0 mph19.3 kmh 30.15 in1021.0 mb 0.00 in0.0 mm 0.00 in0.0 mm 0.00 in0.0 mm
10:50 PM 44.3°F6.8°C 26.4°F-3.1°C 49% 1.0 mph WSW1.6 kmh WSW 12.0 mph19.3 kmh 30.15 in1021.0 mb 0.00 in0.0 mm 0.00 in0.0 mm 0.00 in0.0 mm
10:55 PM 44.2°F6.8°C 25.3°F-3.7°C 47% 2.0 mph WSW3.2 kmh WSW 6.0 mph9.7 kmh 30.15 in1021.0 mb 0.00 in0.0 mm 0.00 in0.0 mm 0.00 in0.0 mm
11:00 PM 44.1°F6.7°C 25.7°F-3.5°C 48% 3.0 mph WSW4.8 kmh WSW 6.0 mph9.7 kmh 30.16 in1021.3 mb 0.00 in0.0 mm 0.00 in0.0 mm 0.00 in0.0 mm
11:05 PM 43.9°F6.6°C 25.5°F-3.6°C 48% 3.0 mph WSW4.8 kmh WSW 11.0 mph17.7 kmh 30.16 in1021.3 mb 0.00 in0.0 mm 0.00 in0.0 mm 0.00 in0.0 mm
11:10 PM 43.8°F6.6°C 25.4°F-3.7°C 48% 5.0 mph WSW8.0 kmh WSW 9.0 mph14.5 kmh 30.16 in1021.3 mb 0.00 in0.0 mm 0.00 in0.0 mm 0.00 in0.0 mm
11:15 PM 43.8°F6.6°C 26.4°F-3.1°C 50% 7.0 mph WSW11.3 kmh WSW 10.0 mph16.1 kmh 30.16 in1021.3 mb 0.00 in0.0 mm 0.00 in0.0 mm 0.00 in0.0 mm
11:20 PM 43.7°F6.5°C 26.3°F-3.2°C 50% 7.0 mph WSW11.3 kmh WSW 10.0 mph16.1 kmh 30.16 in1021.3 mb 0.00 in0.0 mm 0.00 in0.0 mm 0.00 in0.0 mm
11:25 PM 43.6°F6.4°C 26.7°F-2.9°C 51% 4.0 mph WSW6.4 kmh WSW 6.0 mph9.7 kmh 30.16 in1021.3 mb 0.00 in0.0 mm 0.00 in0.0 mm 0.00 in0.0 mm
11:30 PM 43.5°F6.4°C 25.6°F-3.6°C 49% 2.0 mph WSW3.2 kmh WSW 7.0 mph11.3 kmh 30.16 in1021.3 mb 0.00 in0.0 mm 0.00 in0.0 mm 0.00 in0.0 mm
11:35 PM 43.4°F6.3°C 25.5°F-3.6°C 49% 4.0 mph WSW6.4 kmh WSW 7.0 mph11.3 kmh 30.16 in1021.3 mb 0.00 in0.0 mm 0.00 in0.0 mm 0.00 in0.0 mm
11:40 PM 43.2°F6.2°C 25.8°F-3.4°C 50% 1.0 mph WSW1.6 kmh WSW 7.0 mph11.3 kmh 30.16 in1021.3 mb 0.00 in0.0 mm 0.00 in0.0 mm 0.00 in0.0 mm
11:45 PM 43.1°F6.2°C 26.2°F-3.2°C 51% 6.0 mph WSW9.7 kmh WSW 8.0 mph12.9 kmh 30.16 in1021.3 mb 0.00 in0.0 mm 0.00 in0.0 mm 0.00 in0.0 mm
11:50 PM 43.0°F6.1°C 25.7°F-3.5°C 50% 2.0 mph WSW3.2 kmh WSW 8.0 mph12.9 kmh 30.16 in1021.3 mb 0.00 in0.0 mm 0.00 in0.0 mm 0.00 in0.0 mm
11:55 PM 42.8°F6.0°C 25.0°F-3.9°C 49% 4.0 mph WSW6.4 kmh WSW 6.0 mph9.7 kmh 30.17 in1021.7 mb 0.00 in0.0 mm 0.00 in0.0 mm 0.00 in0.0 mm